Time;durP1;ratioP1;P1;durP2;ratioP2;P2;SDS_P1;SDS_P2;PMS_P1;PMS_P2;Temp;Humidity;BMP_temperature;BMP_pressure;BME280_temperature;BME280_humidity;BME280_pressure;Samples;Min_cycle;Max_cycle;Signal;HPM_P1;HPM_P2
2022/05/29 00:01:57;;;;;;;10.15;5.22;;;;;;;;;;5079091;28;20036;-78
2022/05/29 00:04:24;;;;;;;7.90;5.07;;;;;;;;;;5071430;28;20081;-78
2022/05/29 00:06:51;;;;;;;9.75;5.65;;;;;;;;;;5080654;28;20024;-77
2022/05/29 00:09:20;;;;;;;8.88;4.80;;;;;;;;;;5078644;28;20020;-77
2022/05/29 00:11:47;;;;;;;13.55;4.78;;;;;;;;;;5081187;28;20035;-78
2022/05/29 00:14:13;;;;;;;10.93;4.45;;;;;;;;;;5077999;28;20147;-78
2022/05/29 00:16:39;;;;;;;8.52;4.20;;;;;;;;;;5073484;28;20171;-77
2022/05/29 00:19:05;;;;;;;7.30;4.68;;;;;;;;;;5078516;28;20031;-77
2022/05/29 00:21:36;;;;;;;9.77;4.82;;;;;;;;;;5076298;28;20051;-78
2022/05/29 00:24:03;;;;;;;6.67;5.30;;;;;;;;;;5076148;28;20024;-77
2022/05/29 00:26:29;;;;;;;8.98;5.22;;;;;;;;;;5072635;28;20029;-77
2022/05/29 00:28:55;;;;;;;7.75;5.40;;;;;;;;;;5079984;28;20036;-77
2022/05/29 00:31:21;;;;;;;7.70;4.50;;;;;;;;;;5072351;28;20431;-77
2022/05/29 00:33:47;;;;;;;6.43;4.70;;;;;;;;;;5077846;28;20028;-77
2022/05/29 00:36:15;;;;;;;11.65;4.78;;;;;;;;;;5075453;28;20028;-77
2022/05/29 00:38:42;;;;;;;11.32;5.50;;;;;;;;;;5072603;28;20271;-77
2022/05/29 00:41:17;;;;;;;11.27;5.85;;;;;;;;;;5076530;28;20020;-77
2022/05/29 00:43:43;;;;;;;7.75;4.80;;;;;;;;;;5074036;28;20025;-77
2022/05/29 00:46:12;;;;;;;10.02;3.80;;;;;;;;;;5081893;28;20039;-77
2022/05/29 00:48:38;;;;;;;8.95;4.15;;;;;;;;;;5072850;28;20402;-78
2022/05/29 00:51:07;;;;;;;7.65;3.95;;;;;;;;;;5076051;28;20020;-77
2022/05/29 00:53:34;;;;;;;9.05;4.38;;;;;;;;;;5076109;28;20085;-77
2022/05/29 00:56:01;;;;;;;5.05;3.70;;;;;;;;;;5080112;28;20042;-77
2022/05/29 00:58:28;;;;;;;6.65;3.80;;;;;;;;;;5074153;28;20026;-77
2022/05/29 01:00:55;;;;;;;7.55;3.95;;;;;;;;;;5074410;28;20073;-78
2022/05/29 01:03:21;;;;;;;9.25;4.18;;;;;;;;;;5078430;28;20491;-77
2022/05/29 01:05:47;;;;;;;10.88;4.53;;;;;;;;;;5080702;28;20016;-77
2022/05/29 01:08:13;;;;;;;8.40;4.20;;;;;;;;;;5077490;28;20042;-77
2022/05/29 01:10:47;;;;;;;8.75;4.70;;;;;;;;;;5077340;28;20025;-78
2022/05/29 01:13:33;;;;;;;8.13;3.90;;;;;;;;;;5078131;28;20392;-77
2022/05/29 01:16:16;;;;;;;10.95;4.20;;;;;;;;;;5078834;28;20476;-77
2022/05/29 01:18:46;;;;;;;7.63;4.88;;;;;;;;;;5075200;28;20028;-77
2022/05/29 01:21:21;;;;;;;8.32;4.40;;;;;;;;;;5078001;28;20037;-77
2022/05/29 01:23:47;;;;;;;6.97;4.32;;;;;;;;;;5073578;28;20047;-77
2022/05/29 01:26:32;;;;;;;7.57;4.80;;;;;;;;;;5073818;28;20055;-77
2022/05/29 01:29:02;;;;;;;8.35;5.32;;;;;;;;;;5075626;28;20021;-77
2022/05/29 01:31:31;;;;;;;7.80;4.50;;;;;;;;;;5080602;28;20092;-77
2022/05/29 01:33:57;;;;;;;8.15;4.80;;;;;;;;;;5075530;28;20491;-77
2022/05/29 01:36:42;;;;;;;6.38;4.60;;;;;;;;;;5073519;28;20040;-77
2022/05/29 01:39:14;;;;;;;7.40;4.32;;;;;;;;;;5074929;28;20116;-77
2022/05/29 01:41:48;;;;;;;8.82;4.13;;;;;;;;;;5076616;28;20024;-77
2022/05/29 01:44:23;;;;;;;9.40;4.13;;;;;;;;;;5072570;28;20079;-77
2022/05/29 01:46:54;;;;;;;6.72;4.00;;;;;;;;;;5076164;28;20024;-77
2022/05/29 01:49:26;;;;;;;8.57;4.50;;;;;;;;;;5076400;28;20012;-78
2022/05/29 01:51:52;;;;;;;8.32;3.75;;;;;;;;;;5075145;28;20044;-78
2022/05/29 01:54:22;;;;;;;8.48;3.80;;;;;;;;;;5076403;28;20487;-77
2022/05/29 01:56:50;;;;;;;6.40;3.60;;;;;;;;;;5080854;28;20457;-77
2022/05/29 01:59:19;;;;;;;10.23;4.38;;;;;;;;;;5078994;28;20434;-77
2022/05/29 02:01:56;;;;;;;7.97;3.35;;;;;;;;;;5071898;28;20048;-77
2022/05/29 02:04:26;;;;;;;6.20;3.35;;;;;;;;;;5074856;28;20028;-78
2022/05/29 02:09:40;;;;;;;6.78;3.67;;;;;;;;;;5072952;28;20148;-77
2022/05/29 02:12:08;;;;;;;6.97;3.97;;;;;;;;;;5073097;28;20512;-77
2022/05/29 02:14:36;;;;;;;9.98;3.88;;;;;;;;;;5080243;28;20016;-77
2022/05/29 02:17:06;;;;;;;7.85;3.95;;;;;;;;;;5080189;28;20039;-77
2022/05/29 02:19:37;;;;;;;7.45;4.47;;;;;;;;;;5072101;28;20028;-77
2022/05/29 02:22:11;;;;;;;8.10;3.92;;;;;;;;;;5074462;28;20035;-77
2022/05/29 02:24:39;;;;;;;6.32;3.90;;;;;;;;;;5069420;28;20028;-77
2022/05/29 02:27:15;;;;;;;7.45;3.80;;;;;;;;;;5069267;28;20388;-77
2022/05/29 02:29:42;;;;;;;6.35;3.70;;;;;;;;;;5071656;28;20376;-77
2022/05/29 02:32:18;;;;;;;7.43;3.70;;;;;;;;;;5073551;28;20021;-77
2022/05/29 02:35:02;;;;;;;6.25;3.50;;;;;;;;;;5073396;28;20051;-77
2022/05/29 02:37:34;;;;;;;7.55;3.25;;;;;;;;;;5070889;28;20497;-76
2022/05/29 02:40:10;;;;;;;6.85;3.28;;;;;;;;;;5069560;28;20066;-77
2022/05/29 02:42:42;;;;;;;7.63;3.70;;;;;;;;;;5067413;28;20033;-77
2022/05/29 02:45:08;;;;;;;;;;;;;;;;;;5068444;28;20048;-77
2022/05/29 02:47:54;;;;;;;4.63;3.00;;;;;;;;;;5068892;28;20368;-77
2022/05/29 02:50:52;;;;;;;5.90;3.10;;;;;;;;;;5073759;28;20028;-77
2022/05/29 02:53:19;;;;;;;4.25;2.97;;;;;;;;;;5032603;28;20480;-77
2022/05/29 02:55:45;;;;;;;5.65;3.25;;;;;;;;;;5075728;28;20027;-77
2022/05/29 02:58:18;;;;;;;6.57;2.90;;;;;;;;;;5072774;28;20093;-77
2022/05/29 03:01:03;;;;;;;5.35;2.60;;;;;;;;;;5071656;28;20031;-77
2022/05/29 03:03:33;;;;;;;5.57;3.05;;;;;;;;;;5071552;28;20593;-77
2022/05/29 03:06:12;;;;;;;7.38;4.00;;;;;;;;;;5076405;28;20057;-77
2022/05/29 03:08:38;;;;;;;7.70;3.15;;;;;;;;;;5069953;28;20044;-77
2022/05/29 03:11:04;;;;;;;9.13;2.97;;;;;;;;;;5066278;28;20487;-77
2022/05/29 03:13:30;;;;;;;5.32;3.28;;;;;;;;;;5069943;28;20051;-77
2022/05/29 03:16:15;;;;;;;6.95;3.08;;;;;;;;;;5068608;28;20100;-77
2022/05/29 03:18:41;;;;;;;7.53;2.97;;;;;;;;;;5068853;28;20051;-77
2022/05/29 03:21:10;;;;;;;11.18;3.47;;;;;;;;;;5062142;28;20021;-77
2022/05/29 03:23:49;;;;;;;9.63;2.80;;;;;;;;;;5064302;28;20152;-77
2022/05/29 03:26:21;;;;;;;7.22;2.97;;;;;;;;;;5064254;28;20134;-77
2022/05/29 03:28:47;;;;;;;;;;;;;;;;;;5063912;28;20023;-77
2022/05/29 03:31:16;;;;;;;6.03;2.80;;;;;;;;;;5064499;28;19908;-77
2022/05/29 03:33:45;;;;;;;3.38;2.20;;;;;;;;;;5060565;28;20039;-76
2022/05/29 03:36:11;;;;;;;5.55;2.83;;;;;;;;;;5064707;28;20029;-77
2022/05/29 03:38:38;;;;;;;5.28;2.65;;;;;;;;;;5062616;28;20119;-77
2022/05/29 03:41:14;;;;;;;5.07;2.60;;;;;;;;;;5063027;28;20020;-77
2022/05/29 03:43:42;;;;;;;4.90;2.42;;;;;;;;;;5066079;28;20602;-77
2022/05/29 03:46:08;;;;;;;11.32;2.80;;;;;;;;;;5075677;28;20033;-77
2022/05/29 03:48:34;;;;;;;5.80;2.50;;;;;;;;;;5063691;28;20412;-77
2022/05/29 03:51:07;;;;;;;6.65;2.90;;;;;;;;;;5062723;28;20642;-77
2022/05/29 03:53:34;;;;;;;7.28;3.00;;;;;;;;;;5077467;28;20043;-77
2022/05/29 03:56:00;;;;;;;5.97;2.80;;;;;;;;;;5084060;28;20024;-77
2022/05/29 03:58:26;;;;;;;8.05;2.90;;;;;;;;;;5084840;28;20522;-77
2022/05/29 04:00:52;;;;;;;4.78;2.92;;;;;;;;;;5081360;28;20454;-77
2022/05/29 04:03:19;;;;;;;5.25;2.60;;;;;;;;;;5083907;28;20040;-77
2022/05/29 04:05:45;;;;;;;5.85;3.22;;;;;;;;;;5082704;28;20103;-77
2022/05/29 04:13:43;;;;;;;5.43;2.88;;;;;;;;;;5084092;28;20048;-77
2022/05/29 04:16:09;;;;;;;8.73;2.95;;;;;;;;;;5083831;28;20024;-77
2022/05/29 04:18:36;;;;;;;8.15;2.50;;;;;;;;;;5083723;28;20028;-77
2022/05/29 04:21:02;;;;;;;5.65;2.75;;;;;;;;;;5084219;28;20016;-77
2022/05/29 04:23:28;;;;;;;6.82;2.85;;;;;;;;;;5081956;28;20020;-77
2022/05/29 04:25:54;;;;;;;7.05;2.83;;;;;;;;;;5083542;28;20392;-77
2022/05/29 04:28:22;;;;;;;6.90;2.67;;;;;;;;;;5084161;28;20032;-77
2022/05/29 04:30:49;;;;;;;8.98;2.58;;;;;;;;;;5084069;28;20476;-77
2022/05/29 04:33:15;;;;;;;6.50;2.28;;;;;;;;;;5083763;28;20067;-76
2022/05/29 04:35:48;;;;;;;4.35;2.30;;;;;;;;;;5081998;28;20028;-77
2022/05/29 04:38:14;;;;;;;6.18;2.67;;;;;;;;;;5081902;28;20501;-77
2022/05/29 04:40:42;;;;;;;4.25;2.72;;;;;;;;;;5083500;28;20048;-77
2022/05/29 04:43:08;;;;;;;9.05;2.90;;;;;;;;;;5083938;28;20026;-77
2022/05/29 04:45:35;;;;;;;5.32;2.80;;;;;;;;;;5084268;28;20036;-77
2022/05/29 04:48:01;;;;;;;6.20;2.60;;;;;;;;;;5083849;28;20016;-77
2022/05/29 04:50:27;;;;;;;5.55;3.13;;;;;;;;;;5082420;28;20193;-77
2022/05/29 04:52:53;;;;;;;7.80;4.13;;;;;;;;;;5082427;28;20036;-77
2022/05/29 04:55:19;;;;;;;5.05;3.50;;;;;;;;;;5083865;28;20024;-77
2022/05/29 04:57:46;;;;;;;5.95;3.40;;;;;;;;;;5083986;28;20024;-77
2022/05/29 05:00:12;;;;;;;8.02;3.60;;;;;;;;;;5082932;28;20030;-77
2022/05/29 05:02:38;;;;;;;7.95;3.58;;;;;;;;;;5086832;28;20073;-77
2022/05/29 05:05:05;;;;;;;4.95;3.33;;;;;;;;;;5087371;28;20514;-77
2022/05/29 05:07:31;;;;;;;9.20;4.32;;;;;;;;;;5079800;28;20024;-77
2022/05/29 05:09:57;;;;;;;7.43;4.25;;;;;;;;;;5078992;28;20050;-77
2022/05/29 05:12:23;;;;;;;7.03;3.80;;;;;;;;;;5087221;28;20024;-77
2022/05/29 05:14:50;;;;;;;7.97;3.95;;;;;;;;;;5087260;28;20024;-77
2022/05/29 05:17:16;;;;;;;6.65;4.32;;;;;;;;;;5085340;28;20023;-77
2022/05/29 05:19:42;;;;;;;9.25;4.65;;;;;;;;;;5085424;28;20024;-77
2022/05/29 05:22:08;;;;;;;7.25;4.57;;;;;;;;;;5086524;28;20023;-77
2022/05/29 05:24:37;;;;;;;6.95;4.40;;;;;;;;;;5087731;28;20020;-77
2022/05/29 05:27:03;;;;;;;9.95;5.00;;;;;;;;;;5086986;28;20046;-77
2022/05/29 05:29:30;;;;;;;9.35;5.63;;;;;;;;;;5086827;28;20111;-77
2022/05/29 05:31:56;;;;;;;11.13;5.72;;;;;;;;;;5086517;28;20032;-77
2022/05/29 05:34:22;;;;;;;9.68;5.57;;;;;;;;;;5085103;28;20031;-77
2022/05/29 05:36:48;;;;;;;8.30;4.95;;;;;;;;;;5086870;28;20020;-77
2022/05/29 05:39:15;;;;;;;15.57;6.20;;;;;;;;;;5086667;28;20016;-77
2022/05/29 05:41:41;;;;;;;8.25;5.35;;;;;;;;;;5086649;28;20045;-77
2022/05/29 05:44:07;;;;;;;10.20;7.25;;;;;;;;;;5086414;28;20080;-77
2022/05/29 05:46:33;;;;;;;12.38;7.32;;;;;;;;;;5084935;28;20095;-78
2022/05/29 05:49:00;;;;;;;9.23;6.35;;;;;;;;;;5086464;28;20044;-77
2022/05/29 05:51:26;;;;;;;9.98;6.72;;;;;;;;;;5085999;28;20103;-78
2022/05/29 05:53:52;;;;;;;12.48;7.35;;;;;;;;;;5086127;28;20032;-78
2022/05/29 05:56:19;;;;;;;10.10;7.10;;;;;;;;;;5086298;28;20085;-78
2022/05/29 05:58:45;;;;;;;9.20;6.38;;;;;;;;;;5084643;28;20107;-77
2022/05/29 06:01:13;;;;;;;14.20;6.93;;;;;;;;;;5085981;28;20059;-78
2022/05/29 06:03:39;;;;;;;10.30;6.30;;;;;;;;;;5086033;28;20048;-78
2022/05/29 06:06:05;;;;;;;9.32;6.75;;;;;;;;;;5084523;28;20119;-78
2022/05/29 06:08:32;;;;;;;9.23;5.50;;;;;;;;;;5071402;28;20290;-78
2022/05/29 06:10:58;;;;;;;7.70;5.43;;;;;;;;;;5085726;28;20077;-77
2022/05/29 06:13:24;;;;;;;10.23;5.70;;;;;;;;;;5085917;28;20434;-78
2022/05/29 06:15:51;;;;;;;6.32;4.97;;;;;;;;;;5085862;28;20353;-78
2022/05/29 06:18:18;;;;;;;8.00;4.60;;;;;;;;;;5084428;28;20032;-77
2022/05/29 06:20:44;;;;;;;5.97;4.10;;;;;;;;;;5085816;28;20094;-78
2022/05/29 06:23:11;;;;;;;7.72;4.68;;;;;;;;;;5085560;28;20849;-78
2022/05/29 06:25:39;;;;;;;5.95;4.25;;;;;;;;;;5084449;28;20461;-78
2022/05/29 06:28:06;;;;;;;9.45;4.60;;;;;;;;;;5084399;28;20070;-78
2022/05/29 06:30:32;;;;;;;9.55;4.78;;;;;;;;;;5085641;28;20036;-78
2022/05/29 06:32:59;;;;;;;7.03;4.10;;;;;;;;;;5085983;28;20035;-77
2022/05/29 06:35:25;;;;;;;8.15;4.32;;;;;;;;;;5084066;28;20027;-77
2022/05/29 06:37:51;;;;;;;7.32;4.00;;;;;;;;;;5085340;28;20047;-77
2022/05/29 06:40:17;;;;;;;8.05;3.72;;;;;;;;;;5085566;28;20464;-78
2022/05/29 06:42:44;;;;;;;7.07;3.63;;;;;;;;;;5083472;28;20035;-78
2022/05/29 06:45:10;;;;;;;5.25;3.30;;;;;;;;;;5063840;28;20025;-78
2022/05/29 06:47:37;;;;;;;6.20;3.40;;;;;;;;;;5080675;28;20484;-78
2022/05/29 06:50:03;;;;;;;7.68;3.42;;;;;;;;;;5085575;28;20019;-78
2022/05/29 06:52:31;;;;;;;7.75;3.58;;;;;;;;;;5085339;28;20056;-78
2022/05/29 06:54:58;;;;;;;5.60;3.83;;;;;;;;;;5083647;28;20023;-78
2022/05/29 06:57:36;;;;;;;6.60;3.72;;;;;;;;;;5085338;28;20483;-78
2022/05/29 07:08:03;;;;;;;6.50;4.03;;;;;;;;;;5073773;28;20469;-78
2022/05/29 07:10:30;;;;;;;6.53;3.88;;;;;;;;;;5082897;28;20024;-78
2022/05/29 07:12:57;;;;;;;7.65;3.60;;;;;;;;;;5085063;28;20603;-78
2022/05/29 07:15:24;;;;;;;7.03;3.38;;;;;;;;;;5083187;28;20016;-77
2022/05/29 07:17:50;;;;;;;5.95;3.38;;;;;;;;;;5079174;28;20020;-78
2022/05/29 07:20:17;;;;;;;8.45;4.38;;;;;;;;;;5076241;28;20104;-78
2022/05/29 07:22:43;;;;;;;4.38;3.30;;;;;;;;;;5073130;28;20035;-78
2022/05/29 07:25:11;;;;;;;4.75;3.40;;;;;;;;;;5075818;28;20028;-78
2022/05/29 07:27:37;;;;;;;6.43;3.35;;;;;;;;;;5084449;28;20016;-78
2022/05/29 07:30:03;;;;;;;6.50;3.40;;;;;;;;;;5082974;28;20418;-78
2022/05/29 07:32:30;;;;;;;8.18;4.22;;;;;;;;;;5071063;28;20074;-78
2022/05/29 07:34:57;;;;;;;5.95;3.72;;;;;;;;;;5083061;28;20198;-78
2022/05/29 07:37:23;;;;;;;9.32;3.85;;;;;;;;;;5076473;28;20114;-77
2022/05/29 07:39:51;;;;;;;5.43;3.80;;;;;;;;;;5078189;28;20020;-77
2022/05/29 07:45:03;;;;;;;9.30;4.07;;;;;;;;;;5077621;28;20031;-78
2022/05/29 07:47:35;;;;;;;6.95;3.92;;;;;;;;;;5082861;28;20034;-78
2022/05/29 07:50:01;;;;;;;9.60;4.18;;;;;;;;;;5084763;28;20020;-78
2022/05/29 07:52:27;;;;;;;6.75;4.00;;;;;;;;;;5084082;28;20028;-78
2022/05/29 07:54:53;;;;;;;9.23;4.10;;;;;;;;;;5084164;28;20031;-78
2022/05/29 07:57:20;;;;;;;6.70;3.50;;;;;;;;;;5082897;28;20020;-78
2022/05/29 07:59:46;;;;;;;5.28;3.47;;;;;;;;;;5082842;28;20256;-78
2022/05/29 08:02:12;;;;;;;5.78;3.13;;;;;;;;;;5084242;28;20136;-78
2022/05/29 08:04:40;;;;;;;5.15;3.05;;;;;;;;;;5084410;28;20027;-79
2022/05/29 08:07:06;;;;;;;5.75;3.45;;;;;;;;;;5079122;28;20036;-78
2022/05/29 08:09:32;;;;;;;6.75;3.20;;;;;;;;;;5074205;28;20047;-78
2022/05/29 08:11:59;;;;;;;4.20;3.13;;;;;;;;;;5083667;28;20020;-78
2022/05/29 08:14:26;;;;;;;6.55;3.05;;;;;;;;;;5081550;28;20476;-78
2022/05/29 08:16:52;;;;;;;5.25;3.25;;;;;;;;;;5084109;28;20034;-78
2022/05/29 08:19:18;;;;;;;7.68;3.67;;;;;;;;;;5082656;28;20059;-78
2022/05/29 08:21:44;;;;;;;10.23;3.80;;;;;;;;;;5084282;28;20464;-78
2022/05/29 08:32:24;;;;;;;6.53;3.03;;;;;;;;;;5084005;28;20089;-78
2022/05/29 08:34:51;;;;;;;4.50;2.40;;;;;;;;;;5085613;28;20095;-78
2022/05/29 08:37:17;;;;;;;4.75;2.63;;;;;;;;;;5087311;28;20020;-77
2022/05/29 08:39:43;;;;;;;6.68;2.58;;;;;;;;;;5087716;28;20023;-78
2022/05/29 08:42:09;;;;;;;10.00;2.63;;;;;;;;;;5087744;28;20027;-78
2022/05/29 08:44:39;;;;;;;6.63;2.50;;;;;;;;;;5086041;28;20032;-78
2022/05/29 08:47:05;;;;;;;5.68;3.00;;;;;;;;;;5087670;28;20505;-78
2022/05/29 08:49:50;;;;;;;8.80;3.72;;;;;;;;;;5087250;28;20101;-78
2022/05/29 08:52:43;;;;;;;6.20;2.78;;;;;;;;;;5087280;28;20067;-78
2022/05/29 08:55:27;;;;;;;6.13;2.67;;;;;;;;;;5087520;28;20021;-78
2022/05/29 08:57:54;;;;;;;5.82;2.47;;;;;;;;;;5085720;28;20235;-78
2022/05/29 09:00:39;;;;;;;6.10;2.78;;;;;;;;;;5087012;28;20032;-78
2022/05/29 09:03:18;;;;;;;4.97;2.55;;;;;;;;;;5086881;28;20512;-78
2022/05/29 09:05:46;;;;;;;7.70;3.10;;;;;;;;;;5087624;28;20024;-78
2022/05/29 09:08:20;;;;;;;7.13;2.95;;;;;;;;;;5072503;28;20028;-79
2022/05/29 09:10:47;;;;;;;5.75;2.60;;;;;;;;;;5073161;28;20016;-78
2022/05/29 09:13:17;;;;;;;5.57;3.08;;;;;;;;;;5087256;28;20534;-78
2022/05/29 09:15:51;;;;;;;6.80;2.88;;;;;;;;;;5087316;28;20423;-78
2022/05/29 09:18:22;;;;;;;10.23;3.40;;;;;;;;;;5087255;28;20476;-78
2022/05/29 09:20:51;;;;;;;9.80;3.38;;;;;;;;;;5086900;28;20044;-78
2022/05/29 09:23:18;;;;;;;6.00;2.63;;;;;;;;;;5083933;28;20036;-78
2022/05/29 09:25:45;;;;;;;7.22;2.90;;;;;;;;;;5086844;28;20016;-79
2022/05/29 09:28:17;;;;;;;9.23;3.20;;;;;;;;;;5086786;28;20491;-79
2022/05/29 09:30:43;;;;;;;9.48;3.20;;;;;;;;;;5087197;28;20036;-78
2022/05/29 09:33:15;;;;;;;7.43;2.90;;;;;;;;;;5085118;28;20043;-78
2022/05/29 09:36:00;;;;;;;6.10;3.03;;;;;;;;;;5086625;28;20173;-78
2022/05/29 09:38:30;;;;;;;9.73;3.10;;;;;;;;;;5086665;28;20413;-78
2022/05/29 09:41:02;;;;;;;9.13;3.67;;;;;;;;;;5086461;28;20031;-79
2022/05/29 09:43:29;;;;;;;6.32;3.03;;;;;;;;;;5084990;28;20260;-79
2022/05/29 09:45:55;;;;;;;7.25;3.22;;;;;;;;;;5086643;28;20035;-78
2022/05/29 09:51:09;;;;;;;8.60;3.25;;;;;;;;;;5086717;28;20043;-79
2022/05/29 09:53:42;;;;;;;7.95;3.25;;;;;;;;;;5086252;28;20028;-79
2022/05/29 09:56:09;;;;;;;12.75;3.30;;;;;;;;;;5084466;28;20017;-79
2022/05/29 09:58:44;;;;;;;9.80;3.78;;;;;;;;;;5086460;28;20492;-79
2022/05/29 10:01:10;;;;;;;6.85;3.28;;;;;;;;;;5086015;28;20086;-78
2022/05/29 10:03:44;;;;;;;11.52;3.42;;;;;;;;;;5086271;28;20044;-79
2022/05/29 10:06:11;;;;;;;8.60;3.50;;;;;;;;;;5084737;28;20412;-79
2022/05/29 10:08:38;;;;;;;8.10;3.42;;;;;;;;;;5071620;28;20036;-79
2022/05/29 10:11:16;;;;;;;8.68;3.33;;;;;;;;;;5086053;28;20024;-78
2022/05/29 10:13:43;;;;;;;13.35;3.42;;;;;;;;;;5085954;28;20040;-78
2022/05/29 10:16:11;;;;;;;8.05;3.05;;;;;;;;;;5086168;28;20028;-79
2022/05/29 10:18:39;;;;;;;8.90;3.25;;;;;;;;;;5084093;28;20039;-79
2022/05/29 10:21:23;;;;;;;8.93;2.95;;;;;;;;;;5085779;28;20499;-78
2022/05/29 10:23:52;;;;;;;7.47;3.50;;;;;;;;;;5084721;28;20472;-78
2022/05/29 10:26:30;;;;;;;11.23;3.22;;;;;;;;;;5085976;28;20249;-79
2022/05/29 10:28:57;;;;;;;12.60;4.07;;;;;;;;;;5084278;28;20035;-78
2022/05/29 10:31:29;;;;;;;10.45;3.42;;;;;;;;;;5085720;28;20025;-79
2022/05/29 10:34:01;;;;;;;8.57;3.33;;;;;;;;;;5085278;28;20081;-79
2022/05/29 10:36:29;;;;;;;10.13;3.20;;;;;;;;;;5085483;28;20407;-79
2022/05/29 10:39:05;;;;;;;11.77;3.08;;;;;;;;;;5085541;28;20438;-79
2022/05/29 10:41:34;;;;;;;11.52;3.33;;;;;;;;;;5084303;28;20032;-79
2022/05/29 10:44:01;;;;;;;9.63;3.83;;;;;;;;;;5084078;28;20483;-79
2022/05/29 10:46:41;;;;;;;10.13;3.50;;;;;;;;;;5085034;28;20440;-78
2022/05/29 10:49:18;;;;;;;4.65;2.60;;;;;;;;;;5085245;28;20096;-79
2022/05/29 10:51:47;;;;;;;6.10;3.03;;;;;;;;;;5072404;28;20028;-79
2022/05/29 10:54:13;;;;;;;12.65;3.40;;;;;;;;;;5085066;28;20058;-78
2022/05/29 10:56:51;;;;;;;5.53;3.03;;;;;;;;;;5082825;28;20384;-79
2022/05/29 10:59:27;;;;;;;9.02;3.10;;;;;;;;;;5085163;28;20031;-78
2022/05/29 11:04:50;;;;;;;7.28;2.72;;;;;;;;;;5081608;28;20411;-78
2022/05/29 11:07:35;;;;;;;6.97;2.50;;;;;;;;;;5079839;28;20082;-79
2022/05/29 11:10:24;;;;;;;6.47;2.60;;;;;;;;;;5077508;28;20165;-79
2022/05/29 11:12:50;;;;;;;5.35;2.67;;;;;;;;;;5072576;28;20391;-79
2022/05/29 11:15:16;;;;;;;6.57;2.30;;;;;;;;;;5084792;28;20024;-79
2022/05/29 11:17:51;;;;;;;8.27;2.80;;;;;;;;;;5084983;28;20031;-79
2022/05/29 11:20:20;;;;;;;5.40;2.13;;;;;;;;;;5084679;28;20016;-78
2022/05/29 11:22:58;;;;;;;5.50;2.72;;;;;;;;;;5085048;28;20094;-79
2022/05/29 11:25:43;;;;;;;8.77;2.65;;;;;;;;;;5081810;28;20088;-79
2022/05/29 11:28:09;;;;;;;6.53;2.75;;;;;;;;;;5084732;28;20024;-79
2022/05/29 11:30:38;;;;;;;8.48;3.00;;;;;;;;;;5084495;28;20055;-78
2022/05/29 11:33:04;;;;;;;5.82;2.60;;;;;;;;;;5084462;28;20119;-79
2022/05/29 11:35:34;;;;;;;5.75;2.80;;;;;;;;;;5083236;28;20024;-79
2022/05/29 11:38:19;;;;;;;6.35;2.78;;;;;;;;;;5070682;28;20387;-79
2022/05/29 11:40:47;;;;;;;5.45;2.50;;;;;;;;;;5084318;28;20027;-79
2022/05/29 11:43:16;;;;;;;5.07;2.45;;;;;;;;;;5084547;28;20684;-79
2022/05/29 11:51:31;;;;;;;6.85;2.63;;;;;;;;;;5084427;28;20031;-79
2022/05/29 11:54:03;;;;;;;5.88;2.40;;;;;;;;;;5084744;28;20032;-79
2022/05/29 11:56:30;;;;;;;7.43;2.75;;;;;;;;;;5084612;28;20024;-79
2022/05/29 11:58:56;;;;;;;5.13;2.38;;;;;;;;;;5084469;28;20054;-79
2022/05/29 12:01:24;;;;;;;4.60;2.22;;;;;;;;;;5082879;28;20024;-78
2022/05/29 12:03:50;;;;;;;5.53;2.33;;;;;;;;;;5083939;28;20032;-78
2022/05/29 12:06:22;;;;;;;5.85;2.67;;;;;;;;;;5084018;28;20032;-79
2022/05/29 12:08:54;;;;;;;7.85;2.70;;;;;;;;;;5071648;28;20016;-78
2022/05/29 12:11:23;;;;;;;6.78;2.45;;;;;;;;;;5087205;28;20020;-79
2022/05/29 12:14:08;;;;;;;5.43;2.28;;;;;;;;;;5087843;28;20441;-79
2022/05/29 12:16:35;;;;;;;8.18;2.40;;;;;;;;;;5088254;28;20539;-79
2022/05/29 12:19:04;;;;;;;4.72;2.15;;;;;;;;;;5087969;28;20591;-79
2022/05/29 12:21:36;;;;;;;4.82;2.30;;;;;;;;;;5086666;28;20051;-79
2022/05/29 12:24:03;;;;;;;10.48;3.20;;;;;;;;;;5086895;28;20012;-79
2022/05/29 12:26:47;;;;;;;7.93;2.25;;;;;;;;;;5087995;28;20043;-79
2022/05/29 12:29:13;;;;;;;4.13;2.35;;;;;;;;;;5087833;28;20932;-78
2022/05/29 12:31:50;;;;;;;7.20;2.67;;;;;;;;;;5086432;28;20031;-79
2022/05/29 12:34:22;;;;;;;5.30;2.30;;;;;;;;;;5088136;28;20074;-79
2022/05/29 12:37:27;;;;;;;7.00;2.70;;;;;;;;;;5087706;28;20012;-78
2022/05/29 12:39:59;;;;;;;6.03;2.80;;;;;;;;;;5003120;28;20526;-78
2022/05/29 12:42:28;;;;;;;4.05;2.30;;;;;;;;;;5004588;28;20030;-79
2022/05/29 12:45:13;;;;;;;11.65;2.53;;;;;;;;;;5035548;28;20032;-78
2022/05/29 12:47:57;;;;;;;10.10;2.78;;;;;;;;;;5087893;28;20031;-79
2022/05/29 12:50:23;;;;;;;6.30;2.38;;;;;;;;;;5086186;28;20036;-79
2022/05/29 12:52:55;;;;;;;6.93;2.67;;;;;;;;;;5087226;28;20036;-79
2022/05/29 12:55:21;;;;;;;4.10;2.10;;;;;;;;;;5087839;28;20020;-79
2022/05/29 12:57:47;;;;;;;5.70;2.22;;;;;;;;;;5087261;28;20047;-79
2022/05/29 13:00:27;;;;;;;4.72;2.17;;;;;;;;;;5087673;28;20475;-78
2022/05/29 13:03:22;;;;;;;4.57;2.42;;;;;;;;;;5085644;28;20060;-79
2022/05/29 13:06:07;;;;;;;5.03;2.17;;;;;;;;;;5087351;28;20024;-78
2022/05/29 13:08:33;;;;;;;6.03;1.83;;;;;;;;;;5073184;28;20047;-79
2022/05/29 13:11:00;;;;;;;4.93;2.38;;;;;;;;;;5085897;28;20020;-79
2022/05/29 13:13:35;;;;;;;4.65;1.80;;;;;;;;;;5086795;28;20032;-79
2022/05/29 13:16:22;;;;;;;3.08;1.58;;;;;;;;;;5073108;28;20020;-79
2022/05/29 13:21:55;;;;;;;4.35;1.90;;;;;;;;;;5086252;28;20032;-79
2022/05/29 13:24:23;;;;;;;4.85;2.25;;;;;;;;;;5086733;28;20027;-79
2022/05/29 13:27:08;;;;;;;5.10;1.67;;;;;;;;;;5086817;28;20522;-79
2022/05/29 13:29:40;;;;;;;3.60;1.98;;;;;;;;;;5072848;28;20020;-79
2022/05/29 13:32:15;;;;;;;4.75;1.92;;;;;;;;;;5086858;28;20032;-79
2022/05/29 13:34:46;;;;;;;8.63;2.05;;;;;;;;;;5073600;28;20032;-79
2022/05/29 13:37:21;;;;;;;6.18;2.10;;;;;;;;;;5086708;28;20024;-78
2022/05/29 13:40:04;;;;;;;4.40;1.88;;;;;;;;;;5071686;28;20024;-79
2022/05/29 13:42:33;;;;;;;2.97;1.70;;;;;;;;;;5086465;28;20547;-79
2022/05/29 13:45:00;;;;;;;5.70;1.77;;;;;;;;;;5086530;28;20027;-79
2022/05/29 13:47:30;;;;;;;4.72;1.67;;;;;;;;;;5086233;28;20028;-79
2022/05/29 13:50:11;;;;;;;7.28;2.00;;;;;;;;;;5086412;28;20552;-79
2022/05/29 13:52:39;;;;;;;;;;;;;;;;;;5086960;28;20248;-77
2022/05/29 13:55:19;;;;;;;2.85;1.50;;;;;;;;;;5086510;28;19914;-77
2022/05/29 14:06:25;;;;;;;4.28;1.80;;;;;;;;;;5086370;28;20109;-78
2022/05/29 14:09:03;;;;;;;3.25;1.55;;;;;;;;;;5071944;28;20031;-77
2022/05/29 14:11:47;;;;;;;5.82;2.00;;;;;;;;;;5086075;28;20027;-77
2022/05/29 14:14:38;;;;;;;3.95;1.85;;;;;;;;;;5072189;28;20480;-76
2022/05/29 14:17:09;;;;;;;5.53;1.88;;;;;;;;;;5086164;28;20016;-78
2022/05/29 14:19:35;;;;;;;;;;;;;;;;;;5086575;28;20025;-78
2022/05/29 14:22:11;;;;;;;7.88;2.08;;;;;;;;;;5085251;28;20364;-78
2022/05/29 14:25:00;;;;;;;5.88;2.72;;;;;;;;;;5084663;28;20020;-77
2022/05/29 14:27:38;;;;;;;6.35;1.95;;;;;;;;;;5085624;28;20016;-76
2022/05/29 14:30:08;;;;;;;2.80;1.40;;;;;;;;;;5085758;28;20308;-77
2022/05/29 14:32:43;;;;;;;5.40;1.55;;;;;;;;;;5084250;28;20067;-77
2022/05/29 14:35:16;;;;;;;7.05;1.88;;;;;;;;;;5085437;28;20150;-77
2022/05/29 14:37:53;;;;;;;3.03;1.83;;;;;;;;;;5083894;28;20024;-76
2022/05/29 14:40:40;;;;;;;6.68;2.33;;;;;;;;;;5085252;28;20536;-77
2022/05/29 14:43:15;;;;;;;4.00;1.63;;;;;;;;;;5085306;28;20039;-76
2022/05/29 14:45:43;;;;;;;6.75;2.08;;;;;;;;;;5083835;28;20055;-76
2022/05/29 14:48:16;;;;;;;4.65;2.08;;;;;;;;;;5085273;28;20024;-77
2022/05/29 14:51:00;;;;;;;4.05;1.73;;;;;;;;;;5085197;28;20484;-77
2022/05/29 14:53:42;;;;;;;4.00;1.55;;;;;;;;;;5072108;28;20269;-77
2022/05/29 14:56:12;;;;;;;6.35;1.92;;;;;;;;;;5083301;28;20304;-77
2022/05/29 14:58:42;;;;;;;3.30;2.08;;;;;;;;;;5085143;28;20070;-77
2022/05/29 15:01:15;;;;;;;3.95;2.10;;;;;;;;;;5085165;28;20054;-76
2022/05/29 15:03:43;;;;;;;4.93;2.15;;;;;;;;;;5085147;28;20511;-77
2022/05/29 15:06:12;;;;;;;6.13;2.00;;;;;;;;;;5083423;28;20020;-77
2022/05/29 15:11:26;;;;;;;5.38;1.55;;;;;;;;;;5085303;28;20172;-77
2022/05/29 15:14:02;;;;;;;3.40;1.90;;;;;;;;;;5084816;28;20024;-78
2022/05/29 15:16:40;;;;;;;2.78;1.70;;;;;;;;;;5085357;28;20023;-77
2022/05/29 15:19:13;;;;;;;3.17;1.70;;;;;;;;;;5082673;28;20111;-77
2022/05/29 15:24:42;;;;;;;8.40;1.80;;;;;;;;;;5085253;28;20043;-77
2022/05/29 15:27:10;;;;;;;3.92;1.83;;;;;;;;;;5084611;28;20425;-78
2022/05/29 15:29:36;;;;;;;4.47;1.73;;;;;;;;;;5082946;28;20476;-77
2022/05/29 15:32:07;;;;;;;3.55;1.60;;;;;;;;;;5084179;28;20051;-77
2022/05/29 15:34:48;;;;;;;3.95;1.85;;;;;;;;;;5084357;28;20035;-77
2022/05/29 15:37:17;;;;;;;6.10;2.00;;;;;;;;;;5084500;28;20059;-77
2022/05/29 15:40:03;;;;;;;6.15;1.75;;;;;;;;;;5070843;28;20035;-77
2022/05/29 15:42:36;;;;;;;3.28;1.80;;;;;;;;;;5031903;28;20531;-77
2022/05/29 15:45:04;;;;;;;5.13;2.08;;;;;;;;;;5084020;28;20024;-77
2022/05/29 15:47:46;;;;;;;4.60;1.88;;;;;;;;;;5084187;28;20032;-78
2022/05/29 15:50:17;;;;;;;3.25;1.63;;;;;;;;;;5084395;28;20480;-77
2022/05/29 15:52:43;;;;;;;6.57;1.90;;;;;;;;;;5084075;28;20547;-76
2022/05/29 15:55:20;;;;;;;4.35;2.03;;;;;;;;;;5083278;28;20016;-77
2022/05/29 15:57:50;;;;;;;5.65;2.10;;;;;;;;;;5083974;28;20103;-77
2022/05/29 16:00:21;;;;;;;6.72;1.70;;;;;;;;;;5083940;28;20020;-77